createdAt,value
2022-09-09T00:00:47.796Z,95349
2022-09-09T00:01:56.447Z,95352
2022-09-09T00:03:05.363Z,95348
2022-09-09T00:04:14.910Z,95352
2022-09-09T00:05:24.605Z,95349
2022-09-09T00:06:34.344Z,95345
2022-09-09T00:07:43.995Z,95351
2022-09-09T00:08:53.734Z,95348
2022-09-09T00:10:03.544Z,95352
2022-09-09T00:11:13.219Z,95354
2022-09-09T00:12:21.942Z,95351
2022-09-09T00:13:31.633Z,95348
2022-09-09T00:14:40.342Z,95349
2022-09-09T00:15:49.102Z,95348
2022-09-09T00:16:57.743Z,95350
2022-09-09T00:18:07.422Z,95350
2022-09-09T00:19:17.239Z,95347
2022-09-09T00:20:26.870Z,95345
2022-09-09T00:21:35.595Z,95346
2022-09-09T00:22:45.459Z,95345
2022-09-09T00:23:54.130Z,95345
2022-09-09T00:25:03.921Z,95348
2022-09-09T00:26:13.678Z,95351
2022-09-09T00:27:23.422Z,95346
2022-09-09T00:28:32.125Z,95347
2022-09-09T00:29:40.810Z,95345
2022-09-09T00:30:49.504Z,95344
2022-09-09T00:31:59.194Z,95345
2022-09-09T00:33:10.908Z,95346
2022-09-09T00:34:17.562Z,95344
2022-09-09T00:35:26.320Z,95341
2022-09-09T00:36:36.101Z,95344
2022-09-09T00:37:45.848Z,95347
2022-09-09T00:38:55.775Z,95345
2022-09-09T00:40:04.506Z,95348
2022-09-09T00:41:14.173Z,95350
2022-09-09T00:42:21.840Z,95348
2022-09-09T00:43:30.508Z,95351
2022-09-09T00:44:39.228Z,95348
2022-09-09T00:45:47.963Z,95357
2022-09-09T00:46:57.699Z,95351
2022-09-09T00:48:05.431Z,95356
2022-09-09T00:49:14.110Z,95359
2022-09-09T00:50:23.802Z,95358
2022-09-09T00:51:31.661Z,95357
2022-09-09T00:52:40.368Z,95358
2022-09-09T00:53:49.103Z,95357
2022-09-09T00:54:58.778Z,95356
2022-09-09T00:56:08.553Z,95357
2022-09-09T00:57:16.211Z,95356
2022-09-09T00:58:24.877Z,95358
2022-09-09T00:59:34.640Z,95356
2022-09-09T01:00:43.334Z,95355
2022-09-09T01:01:52.172Z,95356
2022-09-09T01:03:00.810Z,95354
2022-09-09T01:04:09.519Z,95361
2022-09-09T01:05:19.317Z,95357
2022-09-09T01:06:28.934Z,95359
2022-09-09T01:07:37.647Z,95358
2022-09-09T01:08:47.367Z,95357
2022-09-09T01:09:56.039Z,95361
2022-09-09T01:11:05.767Z,95359
2022-09-09T01:12:14.468Z,95364
2022-09-09T01:13:24.272Z,95361
2022-09-09T01:14:33.978Z,95359
2022-09-09T01:15:43.739Z,95359
2022-09-09T01:16:52.449Z,95359
2022-09-09T01:18:02.201Z,95362
2022-09-09T01:19:11.936Z,95355
2022-09-09T01:20:21.631Z,95356
2022-09-09T01:21:31.287Z,95360
2022-09-09T01:22:40.955Z,95351
2022-09-09T01:23:50.680Z,95355
2022-09-09T01:25:00.325Z,95352
2022-09-09T01:26:10.001Z,95352
2022-09-09T01:27:19.707Z,95350
2022-09-09T01:28:29.491Z,95352
2022-09-09T01:29:39.074Z,95346
2022-09-09T01:30:47.898Z,95343
2022-09-09T01:31:57.489Z,95339
2022-09-09T01:33:07.152Z,95343
2022-09-09T01:34:16.845Z,95346
2022-09-09T01:35:26.537Z,95346
2022-09-09T01:36:35.260Z,95354
2022-09-09T01:37:43.956Z,95350
2022-09-09T01:38:53.702Z,95350
2022-09-09T01:40:02.530Z,95349
2022-09-09T01:41:11.227Z,95347
2022-09-09T01:42:19.924Z,95348
2022-09-09T01:43:28.628Z,95350
2022-09-09T01:44:38.404Z,95350
2022-09-09T01:45:47.110Z,95352
2022-09-09T01:46:56.761Z,95351
2022-09-09T01:48:06.438Z,95359
2022-09-09T01:49:14.130Z,95352
2022-09-09T01:50:22.808Z,95355
2022-09-09T01:51:32.579Z,95354
2022-09-09T01:52:42.239Z,95358
2022-09-09T01:53:51.967Z,95351
2022-09-09T01:54:59.634Z,95359
2022-09-09T01:56:09.378Z,95357
2022-09-09T01:57:19.134Z,95359
2022-09-09T01:58:26.820Z,95353
2022-09-09T01:59:35.541Z,95355
2022-09-09T02:00:45.289Z,95349
2022-09-09T02:01:54.980Z,95350
2022-09-09T02:03:03.645Z,95348
2022-09-09T02:04:11.307Z,95345
2022-09-09T02:05:20.991Z,95349
2022-09-09T02:06:30.662Z,95348
2022-09-09T02:07:39.366Z,95349
2022-09-09T02:08:48.036Z,95346
2022-09-09T02:09:57.719Z,95349
2022-09-09T02:11:06.427Z,95348
2022-09-09T02:12:16.097Z,95352
2022-09-09T02:13:24.776Z,95344
2022-09-09T02:14:34.713Z,95345
2022-09-09T02:15:44.438Z,95343
2022-09-09T02:16:52.301Z,95344
2022-09-09T02:18:00.961Z,95342
2022-09-09T02:19:09.636Z,95341
2022-09-09T02:20:19.438Z,95341
2022-09-09T02:21:29.062Z,95340
2022-09-09T02:22:37.768Z,95340
2022-09-09T02:23:47.461Z,95344
2022-09-09T02:24:57.091Z,95339
2022-09-09T02:26:05.774Z,95336
2022-09-09T02:27:14.481Z,95335
2022-09-09T02:28:24.156Z,95341
2022-09-09T02:29:33.833Z,95345
2022-09-09T02:30:43.681Z,95345
2022-09-09T02:31:50.264Z,95343
2022-09-09T02:32:58.922Z,95345
2022-09-09T02:34:08.608Z,95343
2022-09-09T02:35:18.265Z,95342
2022-09-09T02:36:26.954Z,95341
2022-09-09T02:37:34.639Z,95340
2022-09-09T02:38:44.382Z,95339
2022-09-09T02:39:54.197Z,95340
2022-09-09T02:41:02.792Z,95341
2022-09-09T02:42:11.482Z,95337
2022-09-09T02:43:21.230Z,95343
2022-09-09T02:44:30.919Z,95342
2022-09-09T02:45:39.618Z,95335
2022-09-09T02:46:49.258Z,95335
2022-09-09T02:47:57.921Z,95334
2022-09-09T02:49:07.595Z,95329
2022-09-09T02:50:15.273Z,95327
2022-09-09T02:51:24.073Z,95327
2022-09-09T02:52:33.739Z,95326
2022-09-09T02:53:41.419Z,95327
2022-09-09T02:54:50.139Z,95327
2022-09-09T02:55:58.864Z,95331
2022-09-09T02:57:08.678Z,95337
2022-09-09T02:58:18.345Z,95334
2022-09-09T02:59:26.057Z,95339
2022-09-09T03:00:34.723Z,95335
2022-09-09T03:01:44.430Z,95340
2022-09-09T03:02:52.113Z,95341
2022-09-09T03:04:01.830Z,95334
2022-09-09T03:05:10.475Z,95333
2022-09-09T03:06:19.154Z,95331
2022-09-09T03:07:28.822Z,95329
2022-09-09T03:08:37.655Z,95324
2022-09-09T03:09:46.184Z,95326
2022-09-09T03:10:55.936Z,95324
2022-09-09T03:12:04.677Z,95325
2022-09-09T03:13:14.326Z,95320
2022-09-09T03:14:23.048Z,95320
2022-09-09T03:15:31.734Z,95318
2022-09-09T03:16:41.460Z,95321
2022-09-09T03:17:50.103Z,95319
2022-09-09T03:18:59.796Z,95317
2022-09-09T03:20:09.642Z,95319
2022-09-09T03:21:18.336Z,95317
2022-09-09T03:22:26.985Z,95315
2022-09-09T03:23:35.691Z,95314
2022-09-09T03:24:45.338Z,95322
2022-09-09T03:25:55.074Z,95323
2022-09-09T03:27:04.730Z,95323
2022-09-09T03:28:14.437Z,95320
2022-09-09T03:29:24.132Z,95316
2022-09-09T03:30:32.774Z,95317
2022-09-09T03:31:42.508Z,95317
2022-09-09T03:32:52.162Z,95321
2022-09-09T03:34:01.854Z,95318
2022-09-09T03:35:10.564Z,95320
2022-09-09T03:36:19.265Z,95318
2022-09-09T03:37:27.997Z,95312
2022-09-09T03:38:36.759Z,95318
2022-09-09T03:39:45.391Z,95321
2022-09-09T03:40:55.015Z,95320
2022-09-09T03:42:03.689Z,95319
2022-09-09T03:43:12.388Z,95316
2022-09-09T03:44:22.092Z,95315
2022-09-09T03:45:31.793Z,95310
2022-09-09T03:46:41.483Z,95309
2022-09-09T03:47:49.144Z,95311
2022-09-09T03:48:57.893Z,95304
2022-09-09T03:50:07.589Z,95309
2022-09-09T03:51:15.242Z,95307
2022-09-09T03:52:24.947Z,95313
2022-09-09T03:53:33.595Z,95313
2022-09-09T03:54:42.296Z,95316
2022-09-09T03:55:51.969Z,95314
2022-09-09T03:57:00.697Z,95311
2022-09-09T03:58:09.368Z,95316
2022-09-09T03:59:19.042Z,95315
2022-09-09T04:00:27.909Z,95311
2022-09-09T04:01:37.647Z,95309
2022-09-09T04:02:46.423Z,95311
2022-09-09T04:03:55.095Z,95311
2022-09-09T04:05:04.769Z,95314
2022-09-09T04:06:12.471Z,95310
2022-09-09T04:07:21.167Z,95312
2022-09-09T04:08:30.860Z,95312
2022-09-09T04:09:39.516Z,95314
2022-09-09T04:10:48.181Z,95313
2022-09-09T04:11:58.608Z,95316
2022-09-09T04:13:07.353Z,95315
2022-09-09T04:14:17.017Z,95309
2022-09-09T04:15:24.695Z,95312
2022-09-09T04:16:33.408Z,95303
2022-09-09T04:17:43.109Z,95304
2022-09-09T04:18:51.742Z,95301
2022-09-09T04:20:01.420Z,95300
2022-09-09T04:21:10.387Z,95304
2022-09-09T04:22:20.047Z,95301
2022-09-09T04:23:29.848Z,95301
2022-09-09T04:24:38.499Z,95300
2022-09-09T04:25:47.144Z,95301
2022-09-09T04:26:57.825Z,95301
2022-09-09T04:28:05.573Z,95293
2022-09-09T04:29:15.287Z,95299
2022-09-09T04:30:23.982Z,95295
2022-09-09T04:31:32.723Z,95289
2022-09-09T04:32:42.370Z,95291
2022-09-09T04:33:52.004Z,95292
2022-09-09T04:35:01.714Z,95287
2022-09-09T04:36:11.388Z,95288
2022-09-09T04:37:21.060Z,95289
2022-09-09T04:38:30.741Z,95294
2022-09-09T04:39:39.532Z,95290
2022-09-09T04:40:49.187Z,95295
2022-09-09T04:41:58.902Z,95290
2022-09-09T04:43:06.682Z,95291
2022-09-09T04:44:16.360Z,95284
2022-09-09T04:45:26.065Z,95287
2022-09-09T04:46:34.812Z,95283
2022-09-09T04:47:42.494Z,95288
2022-09-09T04:48:51.225Z,95290
2022-09-09T04:49:59.881Z,95285
2022-09-09T04:51:09.567Z,95289
2022-09-09T04:52:18.255Z,95292
2022-09-09T04:53:26.936Z,95294
2022-09-09T04:54:36.620Z,95293
2022-09-09T04:55:45.373Z,95295
2022-09-09T04:56:54.058Z,95295
2022-09-09T04:58:02.804Z,95289
2022-09-09T04:59:11.488Z,95286
2022-09-09T05:00:21.212Z,95282
2022-09-09T05:01:29.931Z,95280
2022-09-09T05:02:39.668Z,95281
2022-09-09T05:03:49.330Z,95279
2022-09-09T05:04:58.032Z,95281
2022-09-09T05:06:06.674Z,95284
2022-09-09T05:07:15.378Z,95288
2022-09-09T05:08:24.036Z,95285
2022-09-09T05:09:33.747Z,95290
2022-09-09T05:10:41.416Z,95293
2022-09-09T05:11:50.085Z,95292
2022-09-09T05:12:59.751Z,95295
2022-09-09T05:14:08.430Z,95298
2022-09-09T05:15:17.121Z,95298
2022-09-09T05:16:25.849Z,95301
2022-09-09T05:17:34.438Z,95302
2022-09-09T05:18:44.134Z,95302
2022-09-09T05:19:52.847Z,95298
2022-09-09T05:21:01.559Z,95301
2022-09-09T05:22:11.195Z,95303
2022-09-09T05:23:18.875Z,95301
2022-09-09T05:24:28.548Z,95302
2022-09-09T05:25:37.243Z,95306
2022-09-09T05:26:46.066Z,95305
2022-09-09T05:27:55.795Z,95311
2022-09-09T05:29:05.504Z,95306
2022-09-09T05:30:15.243Z,95304
2022-09-09T05:31:27.011Z,95311
2022-09-09T05:32:33.598Z,95308
2022-09-09T05:33:43.286Z,95303
2022-09-09T05:34:50.965Z,95308
2022-09-09T05:35:59.728Z,95308
2022-09-09T05:37:08.423Z,95309
2022-09-09T05:38:17.090Z,95313
2022-09-09T05:39:27.750Z,95314
2022-09-09T05:40:36.448Z,95309
2022-09-09T05:41:45.128Z,95302
2022-09-09T05:42:54.834Z,95307
2022-09-09T05:44:03.522Z,95307
2022-09-09T05:45:11.209Z,95308
2022-09-09T05:46:20.036Z,95315
2022-09-09T05:47:28.658Z,95315
2022-09-09T05:48:38.507Z,95313
2022-09-09T05:49:47.032Z,95313
2022-09-09T05:50:55.715Z,95317
2022-09-09T05:52:05.516Z,95313
2022-09-09T05:53:13.173Z,95315
2022-09-09T05:54:21.845Z,95313
2022-09-09T05:55:31.576Z,95315
2022-09-09T05:56:40.220Z,95315
2022-09-09T05:57:50.903Z,95313
2022-09-09T05:58:58.584Z,95307
2022-09-09T06:00:07.283Z,95312
2022-09-09T06:01:17.043Z,95310
2022-09-09T06:02:25.916Z,95310
2022-09-09T06:03:35.461Z,95305
2022-09-09T06:04:44.140Z,95316
2022-09-09T06:05:52.840Z,95312
2022-09-09T06:07:02.647Z,95316
2022-09-09T06:08:10.393Z,95314
2022-09-09T06:09:19.077Z,95316
2022-09-09T06:10:28.712Z,95317
2022-09-09T06:11:36.399Z,95316
2022-09-09T06:12:46.166Z,95312
2022-09-09T06:13:55.842Z,95318
2022-09-09T06:15:05.562Z,95321
2022-09-09T06:16:15.320Z,95322
2022-09-09T06:17:23.936Z,95321
2022-09-09T06:18:33.682Z,95319
2022-09-09T06:19:43.365Z,95324
2022-09-09T06:20:51.077Z,95319
2022-09-09T06:22:00.765Z,95322
2022-09-09T06:23:09.447Z,95319
2022-09-09T06:24:19.234Z,95318
2022-09-09T06:25:27.952Z,95320
2022-09-09T06:26:37.636Z,95320
2022-09-09T06:27:47.301Z,95320
2022-09-09T06:28:56.972Z,95319
2022-09-09T06:30:06.700Z,95312
2022-09-09T06:31:16.421Z,95309
2022-09-09T06:32:25.079Z,95312
2022-09-09T06:33:34.797Z,95315
2022-09-09T06:34:43.491Z,95319
2022-09-09T06:35:51.350Z,95323
2022-09-09T06:37:00.072Z,95324
2022-09-09T06:38:09.756Z,95324
2022-09-09T06:39:17.489Z,95327
2022-09-09T06:40:26.190Z,95321
2022-09-09T06:41:36.013Z,95324
2022-09-09T06:42:44.679Z,95323
2022-09-09T06:43:54.379Z,95324
2022-09-09T06:45:01.046Z,95323
2022-09-09T06:46:10.759Z,95324
2022-09-09T06:47:20.436Z,95325
2022-09-09T06:48:29.300Z,95327
2022-09-09T06:49:37.810Z,95330
2022-09-09T06:50:47.850Z,95329
2022-09-09T06:51:56.135Z,95330
2022-09-09T06:53:05.834Z,95329
2022-09-09T06:54:13.522Z,95330
2022-09-09T06:55:22.179Z,95331
2022-09-09T06:56:31.867Z,95326
2022-09-09T06:57:40.678Z,95332
2022-09-09T06:58:49.404Z,95331
2022-09-09T06:59:58.099Z,95327
2022-09-09T07:01:07.824Z,95329
2022-09-09T07:02:17.532Z,95334
2022-09-09T07:03:26.155Z,95334
2022-09-09T07:04:34.836Z,95333
2022-09-09T07:05:44.580Z,95337
2022-09-09T07:06:52.256Z,95346
2022-09-09T07:08:00.936Z,95336
2022-09-09T07:09:09.629Z,95337
2022-09-09T07:10:18.433Z,95338
2022-09-09T07:11:28.150Z,95334
2022-09-09T07:12:35.824Z,95338
2022-09-09T07:13:44.522Z,95334
2022-09-09T07:14:54.159Z,95336
2022-09-09T07:16:03.961Z,95336
2022-09-09T07:17:12.672Z,95335
2022-09-09T07:18:21.357Z,95338
2022-09-09T07:19:31.047Z,95344
2022-09-09T07:20:40.859Z,95339
2022-09-09T07:21:48.574Z,95342
2022-09-09T07:22:57.257Z,95345
2022-09-09T07:24:06.954Z,95346
2022-09-09T07:25:14.637Z,95347
2022-09-09T07:26:24.353Z,95351
2022-09-09T07:27:32.065Z,95354
2022-09-09T07:28:40.772Z,95357
2022-09-09T07:29:49.487Z,95360
2022-09-09T07:30:59.156Z,95366
2022-09-09T07:32:08.769Z,95375
2022-09-09T07:33:17.729Z,95382
2022-09-09T07:34:26.421Z,95393
2022-09-09T07:35:36.110Z,95400
2022-09-09T07:36:44.789Z,95403
2022-09-09T07:37:53.469Z,95398
2022-09-09T07:39:02.278Z,95393
2022-09-09T07:40:10.999Z,95388
2022-09-09T07:41:19.666Z,95389
2022-09-09T07:42:28.522Z,95395
2022-09-09T07:43:38.150Z,95394
2022-09-09T07:44:47.855Z,95398
2022-09-09T07:45:55.554Z,95406
2022-09-09T07:47:04.195Z,95404
2022-09-09T07:48:12.902Z,95406
2022-09-09T07:49:27.607Z,95404
2022-09-09T07:50:32.234Z,95400
2022-09-09T07:51:39.908Z,95398
2022-09-09T07:52:49.596Z,95399
2022-09-09T07:53:58.273Z,95399
2022-09-09T07:55:06.976Z,95400
2022-09-09T07:56:15.687Z,95404
2022-09-09T07:57:25.391Z,95411
2022-09-09T07:58:38.241Z,95410
2022-09-09T07:59:44.759Z,95415
2022-09-09T08:00:54.133Z,95417
2022-09-09T08:02:03.936Z,95417
2022-09-09T08:03:12.564Z,95412
2022-09-09T08:04:21.336Z,95414
2022-09-09T08:05:30.028Z,95418
2022-09-09T08:06:37.700Z,95414
2022-09-09T08:07:47.581Z,95408
2022-09-09T08:08:57.074Z,95412
2022-09-09T08:10:04.741Z,95412
2022-09-09T08:11:13.403Z,95416
2022-09-09T08:12:24.093Z,95413
2022-09-09T08:13:32.974Z,95417
2022-09-09T08:14:41.575Z,95417
2022-09-09T08:15:51.317Z,95412
2022-09-09T08:17:00.926Z,95418
2022-09-09T08:18:10.641Z,95417
2022-09-09T08:19:19.298Z,95417
2022-09-09T08:20:27.973Z,95424
2022-09-09T08:21:37.669Z,95419
2022-09-09T08:22:47.350Z,95420
2022-09-09T08:23:58.060Z,95421
2022-09-09T08:25:06.838Z,95422
2022-09-09T08:26:15.504Z,95428
2022-09-09T08:27:25.193Z,95431
2022-09-09T08:28:32.877Z,95435
2022-09-09T08:29:42.586Z,95434
2022-09-09T08:30:52.356Z,95438
2022-09-09T08:32:00.078Z,95448
2022-09-09T08:33:08.756Z,95445
2022-09-09T08:34:17.528Z,95442
2022-09-09T08:35:26.239Z,95444
2022-09-09T08:36:36.019Z,95445
2022-09-09T08:37:44.689Z,95440
2022-09-09T08:38:52.352Z,95443
2022-09-09T08:40:02.119Z,95442
2022-09-09T08:41:11.744Z,95441
2022-09-09T08:42:20.434Z,95444
2022-09-09T08:43:29.150Z,95447
2022-09-09T08:44:38.811Z,95451
2022-09-09T08:45:49.498Z,95452
2022-09-09T08:46:57.175Z,95448
2022-09-09T08:48:06.924Z,95444
2022-09-09T08:49:16.618Z,95443
2022-09-09T08:50:25.355Z,95441
2022-09-09T08:51:33.993Z,95444
2022-09-09T08:52:42.665Z,95440
2022-09-09T08:53:51.372Z,95441
2022-09-09T08:55:02.021Z,95439
2022-09-09T08:56:10.711Z,95439
2022-09-09T08:57:19.385Z,95441
2022-09-09T08:58:29.075Z,95442
2022-09-09T08:59:37.770Z,95441
2022-09-09T09:00:46.465Z,95443
2022-09-09T09:01:55.240Z,95439
2022-09-09T09:03:04.822Z,95439
2022-09-09T09:04:14.580Z,95436
2022-09-09T09:05:23.183Z,95436
2022-09-09T09:06:31.895Z,95439
2022-09-09T09:07:41.577Z,95435
2022-09-09T09:08:51.241Z,95435
2022-09-09T09:10:00.976Z,95433
2022-09-09T09:11:11.700Z,95432
2022-09-09T09:12:20.357Z,95435
2022-09-09T09:13:30.092Z,95435
2022-09-09T09:14:37.783Z,95437
2022-09-09T09:15:47.519Z,95439
2022-09-09T09:16:58.240Z,95436
2022-09-09T09:18:05.943Z,95436
2022-09-09T09:19:14.612Z,95433
2022-09-09T09:20:23.453Z,95429
2022-09-09T09:21:32.067Z,95429
2022-09-09T09:22:41.808Z,95428
2022-09-09T09:23:50.494Z,95427
2022-09-09T09:25:00.188Z,95429
2022-09-09T09:26:08.851Z,95433
2022-09-09T09:27:17.554Z,95437
2022-09-09T09:28:27.260Z,95438
2022-09-09T09:29:41.806Z,95441
2022-09-09T09:30:44.655Z,95437
2022-09-09T09:31:53.273Z,95440
2022-09-09T09:33:02.960Z,95436
2022-09-09T09:34:12.668Z,95433
2022-09-09T09:35:21.338Z,95434
2022-09-09T09:36:29.009Z,95440
2022-09-09T09:40:03.328Z,95444
2022-09-09T09:41:09.845Z,95444
2022-09-09T09:42:21.619Z,95443
2022-09-09T09:43:29.369Z,95441
2022-09-09T09:44:36.900Z,95445
2022-09-09T09:45:55.585Z,95443
2022-09-09T09:46:57.412Z,95442
2022-09-09T09:48:07.426Z,95441
2022-09-09T09:49:14.726Z,95440
2022-09-09T09:50:23.444Z,95441
2022-09-09T09:51:32.230Z,95443
2022-09-09T09:52:40.953Z,95445
2022-09-09T09:53:49.613Z,95447
2022-09-09T09:54:58.298Z,95450
2022-09-09T09:56:09.020Z,95450
2022-09-09T09:57:18.816Z,95448
2022-09-09T09:58:28.471Z,95445
2022-09-09T09:59:40.761Z,95442
2022-09-09T10:00:45.864Z,95450
2022-09-09T10:01:55.612Z,95448
2022-09-09T10:03:04.283Z,95453
2022-09-09T10:04:12.992Z,95451
2022-09-09T10:05:26.725Z,95452
2022-09-09T10:06:33.311Z,95454
2022-09-09T10:07:41.975Z,95453
2022-09-09T10:08:50.663Z,95448
2022-09-09T10:09:59.365Z,95442
2022-09-09T10:11:09.059Z,95439
2022-09-09T10:12:17.754Z,95442
2022-09-09T10:13:26.420Z,95441
2022-09-09T10:14:36.162Z,95442
2022-09-09T10:15:45.844Z,95446
2022-09-09T10:16:55.495Z,95447
2022-09-09T10:18:04.185Z,95445
2022-09-09T10:19:12.905Z,95452
2022-09-09T10:20:22.709Z,95448
2022-09-09T10:21:33.291Z,95449
2022-09-09T10:22:41.074Z,95449
2022-09-09T10:23:50.727Z,95447
2022-09-09T10:24:58.352Z,95444
2022-09-09T10:26:07.036Z,95446
2022-09-09T10:27:16.714Z,95446
2022-09-09T10:28:26.348Z,95448
2022-09-09T10:29:35.030Z,95445
2022-09-09T10:30:42.735Z,95444
2022-09-09T10:31:52.393Z,95441
2022-09-09T10:33:02.099Z,95446
2022-09-09T10:34:10.755Z,95447
2022-09-09T10:35:20.467Z,95444
2022-09-09T10:36:30.146Z,95448
2022-09-09T10:37:38.855Z,95449
2022-09-09T10:38:47.532Z,95449
2022-09-09T10:39:56.264Z,95454
2022-09-09T10:41:04.875Z,95447
2022-09-09T10:42:14.591Z,95449
2022-09-09T10:43:22.424Z,95451
2022-09-09T10:44:32.075Z,95452
2022-09-09T10:45:40.740Z,95453
2022-09-09T10:46:49.396Z,95455
2022-09-09T10:47:59.134Z,95454
2022-09-09T10:49:07.807Z,95450
2022-09-09T10:50:16.451Z,95448
2022-09-09T10:51:26.158Z,95452
2022-09-09T10:52:34.894Z,95453
2022-09-09T10:53:43.582Z,95450
2022-09-09T10:54:52.286Z,95454
2022-09-09T10:56:00.957Z,95455
2022-09-09T10:57:10.682Z,95453
2022-09-09T10:58:18.358Z,95460
2022-09-09T10:59:27.036Z,95456
2022-09-09T11:00:36.719Z,95455
2022-09-09T11:01:46.458Z,95454
2022-09-09T11:02:55.074Z,95455
2022-09-09T11:04:03.735Z,95453
2022-09-09T11:05:12.416Z,95456
2022-09-09T11:06:22.254Z,95454
2022-09-09T11:07:29.837Z,95451
2022-09-09T11:08:38.569Z,95452
2022-09-09T11:09:48.183Z,95445
2022-09-09T11:10:55.846Z,95465
2022-09-09T11:12:04.526Z,95453
2022-09-09T11:13:13.194Z,95453
2022-09-09T11:14:21.858Z,95453
2022-09-09T11:15:32.532Z,95458
2022-09-09T11:16:41.207Z,95457
2022-09-09T11:17:49.886Z,95452
2022-09-09T11:18:59.545Z,95455
2022-09-09T11:20:09.241Z,95453
2022-09-09T11:21:18.898Z,95451
2022-09-09T11:22:27.563Z,95454
2022-09-09T11:23:39.972Z,95450
2022-09-09T11:24:46.041Z,95455
2022-09-09T11:25:54.691Z,95446
2022-09-09T11:27:04.384Z,95451
2022-09-09T11:28:12.056Z,95448
2022-09-09T11:29:20.734Z,95447
2022-09-09T11:30:54.732Z,95456
2022-09-09T11:31:41.058Z,95451
2022-09-09T11:32:49.682Z,95450
2022-09-09T11:33:59.351Z,95450
2022-09-09T11:35:08.015Z,95448
2022-09-09T11:36:17.678Z,95444
2022-09-09T11:37:25.349Z,95443
2022-09-09T11:38:33.998Z,95443
2022-09-09T11:39:43.705Z,95444
2022-09-09T11:40:51.402Z,95437
2022-09-09T11:42:01.057Z,95438
2022-09-09T11:43:10.717Z,95443
2022-09-09T11:44:20.380Z,95439
2022-09-09T11:45:30.063Z,95440
2022-09-09T11:46:37.974Z,95437
2022-09-09T11:47:46.543Z,95442
2022-09-09T11:48:56.190Z,95441
2022-09-09T11:50:04.824Z,95442
2022-09-09T11:51:17.039Z,95446
2022-09-09T11:52:24.152Z,95442
2022-09-09T11:53:32.807Z,95445
2022-09-09T11:54:42.467Z,95442
2022-09-09T11:55:50.156Z,95443
2022-09-09T11:56:59.833Z,95440
2022-09-09T11:58:09.519Z,95443
2022-09-09T11:59:18.175Z,95450
2022-09-09T12:00:26.831Z,95444
2022-09-09T12:01:36.529Z,95445
2022-09-09T12:02:45.220Z,95444
2022-09-09T12:03:54.950Z,95444
2022-09-09T12:05:03.765Z,95441
2022-09-09T12:06:12.215Z,95440
2022-09-09T12:07:21.888Z,95441
2022-09-09T12:08:31.581Z,95446
2022-09-09T12:09:41.269Z,95442
2022-09-09T12:10:49.975Z,95438
2022-09-09T12:11:58.626Z,95437
2022-09-09T12:13:08.292Z,95443
2022-09-09T12:14:15.946Z,95442
2022-09-09T12:15:24.619Z,95440
2022-09-09T12:16:34.415Z,95436
2022-09-09T12:17:42.984Z,95442
2022-09-09T12:18:51.737Z,95445
2022-09-09T12:20:01.344Z,95440
2022-09-09T12:21:10.031Z,95440
2022-09-09T12:22:19.695Z,95440
2022-09-09T12:23:29.367Z,95442
2022-09-09T12:24:38.027Z,95445
2022-09-09T12:25:47.681Z,95437
2022-09-09T12:26:56.503Z,95443
2022-09-09T12:28:04.168Z,95440
2022-09-09T12:29:13.879Z,95438
2022-09-09T12:30:22.557Z,95436
2022-09-09T12:31:32.230Z,95429
2022-09-09T12:32:42.907Z,95435
2022-09-09T12:33:51.561Z,95429
2022-09-09T12:35:01.230Z,95431
2022-09-09T12:36:10.001Z,95426
2022-09-09T12:37:18.593Z,95424
2022-09-09T12:38:27.272Z,95422
2022-09-09T12:39:36.023Z,95429
2022-09-09T12:40:45.615Z,95430
2022-09-09T12:41:53.278Z,95428
2022-09-09T12:43:02.945Z,95428
2022-09-09T12:44:11.621Z,95427
2022-09-09T12:45:19.313Z,95424
2022-09-09T12:46:28.890Z,95420
2022-09-09T12:47:38.584Z,95424
2022-09-09T12:48:47.315Z,95417
2022-09-09T12:49:57.130Z,95422
2022-09-09T12:51:05.812Z,95421
2022-09-09T12:52:15.518Z,95419
2022-09-09T12:53:26.431Z,95418
2022-09-09T12:54:32.793Z,95417
2022-09-09T12:55:41.502Z,95418
2022-09-09T12:56:50.165Z,95415
2022-09-09T12:57:58.847Z,95416
2022-09-09T12:59:08.557Z,95412
2022-09-09T13:00:17.219Z,95410
2022-09-09T13:01:25.961Z,95414
2022-09-09T13:02:35.592Z,95417
2022-09-09T13:03:44.237Z,95417
2022-09-09T13:04:53.929Z,95415
2022-09-09T13:06:03.610Z,95409
2022-09-09T13:07:12.287Z,95404
2022-09-09T13:08:21.980Z,95409
2022-09-09T13:09:31.619Z,95405
2022-09-09T13:10:52.390Z,95402
2022-09-09T13:11:51.954Z,95404
2022-09-09T13:13:01.650Z,95396
2022-09-09T13:14:11.340Z,95398
2022-09-09T13:15:20.023Z,95404
2022-09-09T13:16:29.765Z,95404
2022-09-09T13:17:40.380Z,95395
2022-09-09T13:18:49.091Z,95400
2022-09-09T13:19:58.763Z,95400
2022-09-09T13:21:07.420Z,95400
2022-09-09T13:22:16.063Z,95396
2022-09-09T13:23:25.754Z,95397
2022-09-09T13:24:33.444Z,95396
2022-09-09T13:25:43.854Z,95399
2022-09-09T13:26:51.833Z,95393
2022-09-09T13:28:00.488Z,95383
2022-09-09T13:29:10.172Z,95385
2022-09-09T13:30:18.338Z,95382
2022-09-09T13:31:26.990Z,95383
2022-09-09T13:32:36.684Z,95379
2022-09-09T13:33:44.369Z,95382
2022-09-09T13:34:54.035Z,95382
2022-09-09T13:36:02.712Z,95383
2022-09-09T13:37:12.384Z,95379
2022-09-09T13:38:24.659Z,95382
2022-09-09T13:39:31.829Z,95378
2022-09-09T13:40:41.384Z,95386
2022-09-09T13:41:51.061Z,95376
2022-09-09T13:42:59.726Z,95383
2022-09-09T13:44:08.458Z,95380
2022-09-09T13:45:17.038Z,95377
2022-09-09T13:46:25.709Z,95377
2022-09-09T13:47:35.406Z,95375
2022-09-09T13:48:44.072Z,95373
2022-09-09T13:49:52.721Z,95377
2022-09-09T13:51:02.399Z,95379
2022-09-09T13:52:10.054Z,95373
2022-09-09T13:53:18.754Z,95382
2022-09-09T13:54:27.411Z,95370
2022-09-09T13:55:37.099Z,95377
2022-09-09T13:56:46.744Z,95370
2022-09-09T13:57:55.406Z,95366
2022-09-09T13:59:04.079Z,95366
2022-09-09T14:00:13.746Z,95361
2022-09-09T14:01:26.368Z,95359
2022-09-09T14:02:33.260Z,95359
2022-09-09T14:03:41.849Z,95361
2022-09-09T14:04:51.623Z,95362
2022-09-09T14:06:01.264Z,95355
2022-09-09T14:07:08.935Z,95353
2022-09-09T14:08:17.613Z,95357
2022-09-09T14:09:27.286Z,95356
2022-09-09T14:10:35.979Z,95360
2022-09-09T14:11:45.689Z,95355
2022-09-09T14:12:55.323Z,95349
2022-09-09T14:14:03.983Z,95359
2022-09-09T14:15:13.654Z,95353
2022-09-09T14:16:22.473Z,95360
2022-09-09T14:17:32.092Z,95364
2022-09-09T14:18:41.801Z,95364
2022-09-09T14:19:51.508Z,95361
2022-09-09T14:21:00.241Z,95362
2022-09-09T14:22:09.949Z,95357
2022-09-09T14:23:19.507Z,95360
2022-09-09T14:24:28.963Z,95362
2022-09-09T14:25:36.855Z,95371
2022-09-09T14:26:46.849Z,95365
2022-09-09T14:27:56.565Z,95364
2022-09-09T14:29:04.248Z,95368
2022-09-09T14:30:12.951Z,95367
2022-09-09T14:31:22.690Z,95370
2022-09-09T14:32:31.382Z,95370
2022-09-09T14:33:41.057Z,95369
2022-09-09T14:34:48.746Z,95369
2022-09-09T14:35:57.500Z,95368
2022-09-09T14:37:07.188Z,95367
2022-09-09T14:38:18.894Z,95368
2022-09-09T14:39:23.604Z,95372
2022-09-09T14:40:32.290Z,95369
2022-09-09T14:41:40.969Z,95374
2022-09-09T14:42:50.672Z,95373
2022-09-09T14:43:59.439Z,95369
2022-09-09T14:45:08.140Z,95377
2022-09-09T14:46:18.024Z,95385
2022-09-09T14:47:25.731Z,95378
2022-09-09T14:48:34.542Z,95376
2022-09-09T14:49:45.098Z,95380
2022-09-09T14:50:51.838Z,95382
2022-09-09T14:52:01.515Z,95386